createdAt,value
2023-05-05T00:03:17.745Z,15.70
2023-05-05T00:13:43.928Z,9.60
2023-05-05T00:24:10.279Z,9.20
2023-05-05T00:34:35.485Z,8.30
2023-05-05T00:45:02.104Z,10.00
2023-05-05T00:55:29.212Z,12.10
2023-05-05T01:06:10.587Z,12.70
2023-05-05T01:16:39.282Z,13.40
2023-05-05T01:27:26.214Z,11.60
2023-05-05T01:37:56.451Z,12.10
2023-05-05T01:48:24.686Z,12.50
2023-05-05T01:58:51.878Z,13.60
2023-05-05T02:09:18.614Z,13.80
2023-05-05T02:19:48.136Z,13.40
2023-05-05T02:30:19.329Z,12.30
2023-05-05T02:51:32.665Z,10.70
2023-05-05T03:02:10.668Z,11.50
2023-05-05T03:12:46.661Z,13.10
2023-05-05T03:23:13.418Z,9.20
2023-05-05T03:33:39.171Z,11.40
2023-05-05T03:44:05.589Z,12.40
2023-05-05T03:54:31.503Z,10.50
2023-05-05T04:04:57.357Z,10.10
2023-05-05T04:15:23.571Z,12.50
2023-05-05T04:25:49.544Z,11.80
2023-05-05T04:36:15.578Z,11.70
2023-05-05T04:46:41.549Z,12.30
2023-05-05T04:57:09.959Z,11.20
2023-05-05T05:07:35.757Z,13.20
2023-05-05T05:18:01.915Z,14.30
2023-05-05T05:28:27.993Z,17.30
2023-05-05T05:38:54.149Z,15.60
2023-05-05T05:49:19.875Z,18.50
2023-05-05T05:59:45.877Z,15.80
2023-05-05T06:10:26.763Z,14.80
2023-05-05T06:20:54.579Z,13.30
2023-05-05T06:31:20.911Z,13.00
2023-05-05T06:41:46.695Z,14.90
2023-05-05T06:52:12.780Z,15.00
2023-05-05T07:02:39.058Z,14.10
2023-05-05T07:13:05.202Z,10.00
2023-05-05T07:23:30.744Z,10.80
2023-05-05T07:33:56.831Z,10.50
2023-05-05T07:44:22.750Z,9.10
2023-05-05T07:54:48.974Z,10.40
2023-05-05T08:05:15.064Z,10.40
2023-05-05T08:15:40.649Z,9.90
2023-05-05T08:26:09.288Z,9.80
2023-05-05T08:36:35.168Z,9.10
2023-05-05T08:47:02.498Z,7.60
2023-05-05T08:57:33.810Z,6.80
2023-05-05T09:08:02.083Z,4.80
2023-05-05T09:18:27.738Z,4.60
2023-05-05T09:28:56.593Z,6.20
2023-05-05T09:39:22.755Z,5.00
2023-05-05T09:49:57.910Z,8.00
2023-05-05T10:47:53.191Z,2.50
2023-05-05T11:09:31.575Z,3.80
2023-05-05T11:19:57.444Z,3.70
2023-05-05T11:30:23.097Z,3.00
2023-05-05T11:40:50.840Z,4.50
2023-05-05T11:51:17.629Z,2.90
2023-05-05T12:01:44.037Z,2.40
2023-05-05T12:12:10.212Z,3.60
2023-05-05T12:22:35.664Z,4.60
2023-05-05T12:33:05.675Z,2.60
2023-05-05T12:43:33.299Z,2.70
2023-05-05T12:54:07.737Z,5.30
2023-05-05T13:04:34.705Z,2.80
2023-05-05T13:15:00.601Z,4.10
2023-05-05T13:25:26.946Z,4.10
2023-05-05T13:35:52.362Z,2.30
2023-05-05T13:46:20.064Z,3.30
2023-05-05T13:56:46.464Z,2.90
2023-05-05T14:07:12.309Z,5.80
2023-05-05T14:17:37.692Z,5.00
2023-05-05T14:28:03.729Z,5.30
2023-05-05T14:38:29.825Z,3.40
2023-05-05T14:48:55.820Z,3.00
2023-05-05T14:59:21.696Z,3.90
2023-05-05T15:09:47.428Z,2.80
2023-05-05T15:20:15.125Z,5.30
2023-05-05T15:30:40.883Z,4.90
2023-05-05T15:41:09.355Z,3.60
2023-05-05T15:51:35.429Z,3.90
2023-05-05T16:02:01.100Z,2.60
2023-05-05T16:12:27.068Z,3.00
2023-05-05T16:22:53.351Z,3.40
2023-05-05T16:33:18.822Z,3.20
2023-05-05T16:43:44.789Z,3.30
2023-05-05T16:54:10.493Z,4.30
2023-05-05T17:04:36.412Z,4.20
2023-05-05T17:15:02.635Z,4.00
2023-05-05T17:25:28.800Z,2.80
2023-05-05T17:35:55.702Z,2.80
2023-05-05T17:46:21.906Z,4.00
2023-05-05T17:56:47.770Z,4.10
2023-05-05T18:07:14.747Z,3.50
2023-05-05T18:17:40.598Z,3.60
2023-05-05T18:28:06.751Z,4.60
2023-05-05T18:38:33.558Z,5.00
2023-05-05T18:48:59.073Z,7.60
2023-05-05T18:59:25.170Z,6.10
2023-05-05T19:09:50.624Z,8.00
2023-05-05T19:20:16.359Z,5.60
2023-05-05T19:30:42.133Z,8.20
2023-05-05T19:41:07.863Z,7.10
2023-05-05T19:51:33.837Z,8.80
2023-05-05T20:02:00.018Z,6.70
2023-05-05T20:12:25.995Z,4.80
2023-05-05T20:22:52.957Z,7.40
2023-05-05T20:43:43.258Z,9.00
2023-05-05T20:54:10.245Z,8.20
2023-05-05T21:04:35.481Z,8.70
2023-05-05T21:15:01.388Z,7.80
2023-05-05T21:25:28.425Z,10.90
2023-05-05T21:35:54.015Z,11.80
2023-05-05T21:46:20.722Z,9.60
2023-05-05T21:56:46.719Z,11.30
2023-05-05T22:07:12.681Z,12.10
2023-05-05T22:17:38.637Z,11.50
2023-05-05T22:28:05.895Z,10.80
2023-05-05T22:38:31.958Z,10.50
2023-05-05T22:48:57.844Z,10.60
2023-05-05T22:59:23.741Z,10.40
2023-05-05T23:09:50.330Z,10.40
2023-05-05T23:20:16.471Z,10.60
2023-05-05T23:30:42.225Z,10.80
2023-05-05T23:41:08.552Z,9.00
2023-05-05T23:51:34.608Z,12.10
